createdAt,value
2023-12-05T00:03:34.214Z,98216.14
2023-12-05T00:08:41.350Z,98214.39
2023-12-05T00:13:49.265Z,98208.63
2023-12-05T00:18:56.449Z,98204.44
2023-12-05T00:24:03.730Z,98208.05
2023-12-05T00:29:10.853Z,98212.14
2023-12-05T00:34:18.017Z,98211.12
2023-12-05T00:39:25.159Z,98197.98
2023-12-05T00:44:32.270Z,98189.02
2023-12-05T00:49:39.529Z,98178.98
2023-12-05T00:54:46.591Z,98185.61
2023-12-05T00:59:53.822Z,98187.91
2023-12-05T01:05:01.264Z,98186.80
2023-12-05T01:10:09.463Z,98183.56
2023-12-05T01:15:16.485Z,98187.38
2023-12-05T01:20:23.970Z,98181.53
2023-12-05T01:25:31.486Z,98177.03
2023-12-05T01:30:38.850Z,98177.74
2023-12-05T01:35:45.864Z,98179.27
2023-12-05T01:40:52.657Z,98178.16
2023-12-05T01:46:00.999Z,98170.53
2023-12-05T01:51:09.703Z,98164.31
2023-12-05T01:56:17.298Z,98153.02
2023-12-05T02:01:24.357Z,98139.34
2023-12-05T02:06:31.809Z,98134.35
2023-12-05T02:11:39.718Z,98125.44
2023-12-05T02:16:52.151Z,98117.38
2023-12-05T02:22:03.444Z,98113.48
2023-12-05T02:27:15.765Z,98109.05
2023-12-05T02:32:23.009Z,98108.92
2023-12-05T02:37:35.561Z,98109.15
2023-12-05T02:42:44.320Z,98103.30
2023-12-05T02:47:52.216Z,98098.15
2023-12-05T02:52:59.464Z,98090.19
2023-12-05T02:58:06.634Z,98087.35
2023-12-05T03:03:14.196Z,98080.36
2023-12-05T03:08:21.583Z,98080.96
2023-12-05T03:13:28.848Z,98086.72
2023-12-05T03:18:36.094Z,98083.62
2023-12-05T03:23:43.782Z,98085.55
2023-12-05T03:28:51.210Z,98083.94
2023-12-05T03:33:58.437Z,98078.46
2023-12-05T03:39:06.770Z,98076.02
2023-12-05T03:44:13.767Z,98075.94
2023-12-05T03:49:21.347Z,98077.13
2023-12-05T03:54:28.809Z,98081.73
2023-12-05T03:59:35.844Z,98075.89
2023-12-05T04:04:42.822Z,98071.03
2023-12-05T04:09:50.102Z,98063.98
2023-12-05T04:14:57.343Z,98062.77
2023-12-05T04:20:05.915Z,98060.73
2023-12-05T04:25:13.526Z,98061.16
2023-12-05T04:30:21.741Z,98067.07
2023-12-05T04:35:30.561Z,98069.75
2023-12-05T04:40:37.561Z,98073.36
2023-12-05T04:45:46.895Z,98072.83
2023-12-05T04:50:54.005Z,98080.61
2023-12-05T04:56:01.198Z,98078.60
2023-12-05T05:01:08.770Z,98076.40
2023-12-05T05:06:16.145Z,98069.44
2023-12-05T05:11:23.414Z,98068.31
2023-12-05T05:16:30.626Z,98068.57
2023-12-05T05:21:37.632Z,98062.02
2023-12-05T05:26:44.624Z,98064.83
2023-12-05T05:31:51.731Z,98063.64
2023-12-05T05:36:59.024Z,98059.85
2023-12-05T05:42:06.284Z,98061.21
2023-12-05T05:47:13.633Z,98060.48
2023-12-05T05:52:20.795Z,98057.46
2023-12-05T05:57:28.644Z,98064.11
2023-12-05T06:02:36.205Z,98063.23
2023-12-05T06:07:43.415Z,98058.45
2023-12-05T06:12:50.648Z,98060.73
2023-12-05T06:17:59.211Z,98064.75
2023-12-05T06:23:06.183Z,98067.66
2023-12-05T06:28:13.403Z,98063.66
2023-12-05T06:33:20.537Z,98062.99
2023-12-05T06:38:28.010Z,98064.66
2023-12-05T06:43:35.341Z,98060.13
2023-12-05T06:48:44.265Z,98063.55
2023-12-05T06:53:51.518Z,98067.41
2023-12-05T06:58:59.743Z,98065.98
2023-12-05T07:04:07.660Z,98069.83
2023-12-05T07:09:14.996Z,98071.94
2023-12-05T07:14:22.043Z,98061.95
2023-12-05T07:19:29.151Z,98064.19
2023-12-05T07:24:36.328Z,98065.77
2023-12-05T07:29:43.337Z,98061.35
2023-12-05T07:34:51.555Z,98057.74
2023-12-05T07:39:58.901Z,98065.06
2023-12-05T07:45:09.276Z,98065.42
2023-12-05T07:50:16.564Z,98062.52
2023-12-05T07:55:23.839Z,98066.42
2023-12-05T08:00:31.266Z,98067.73
2023-12-05T08:05:38.376Z,98065.80
2023-12-05T08:10:45.544Z,98067.64
2023-12-05T08:15:53.036Z,98064.34
2023-12-05T08:21:00.378Z,98066.56
2023-12-05T08:26:07.841Z,98070.20
2023-12-05T08:31:15.044Z,98071.05
2023-12-05T08:36:22.422Z,98077.60
2023-12-05T08:41:29.543Z,98080.14
2023-12-05T08:46:37.651Z,98082.22
2023-12-05T08:51:44.946Z,98082.27
2023-12-05T08:56:52.932Z,98084.17
2023-12-05T09:02:01.257Z,98086.05
2023-12-05T09:07:08.386Z,98090.77
2023-12-05T09:12:16.123Z,98087.59
2023-12-05T09:17:23.481Z,98088.08
2023-12-05T09:22:30.530Z,98084.59
2023-12-05T09:27:37.817Z,98082.84
2023-12-05T09:32:45.010Z,98077.54
2023-12-05T09:37:52.203Z,98071.16
2023-12-05T09:43:02.459Z,98067.80
2023-12-05T09:48:10.706Z,98061.20
2023-12-05T09:53:18.489Z,98046.98
2023-12-05T09:58:25.943Z,98047.27
2023-12-05T10:03:36.768Z,98046.89
2023-12-05T10:08:44.731Z,98045.36
2023-12-05T10:13:52.144Z,98043.87
2023-12-05T10:18:59.720Z,98036.48
2023-12-05T10:24:07.579Z,98023.95
2023-12-05T10:29:14.513Z,98020.80
2023-12-05T10:34:21.648Z,98021.08
2023-12-05T10:39:37.518Z,98022.22
2023-12-05T10:44:44.485Z,98018.44
2023-12-05T10:49:53.422Z,98014.92
2023-12-05T10:55:00.612Z,98010.42
2023-12-05T11:00:09.975Z,98013.27
2023-12-05T11:05:17.592Z,98007.50
2023-12-05T11:10:24.687Z,98006.45
2023-12-05T11:15:34.789Z,98002.01
2023-12-05T11:20:49.502Z,98004.84
2023-12-05T11:26:04.999Z,98000.75
2023-12-05T11:31:16.719Z,97996.84
2023-12-05T11:36:30.982Z,97999.99
2023-12-05T11:41:37.844Z,98002.23
2023-12-05T11:46:45.521Z,98000.42
2023-12-05T11:51:54.391Z,98003.27
2023-12-05T11:57:12.331Z,97998.61
2023-12-05T12:02:21.825Z,97993.77
2023-12-05T12:07:28.941Z,97987.73
2023-12-05T12:12:36.300Z,97988.86
2023-12-05T12:17:45.735Z,97985.31
2023-12-05T12:22:53.793Z,97992.36
2023-12-05T12:28:01.753Z,97988.77
2023-12-05T12:33:11.202Z,97985.73
2023-12-05T12:38:18.953Z,97988.17
2023-12-05T12:43:26.411Z,97988.45
2023-12-05T12:48:33.785Z,97989.46
2023-12-05T12:53:40.694Z,97988.91
2023-12-05T12:58:49.084Z,97984.67
2023-12-05T13:03:57.835Z,97982.20
2023-12-05T13:09:10.042Z,97988.72
2023-12-05T13:14:18.917Z,97984.73
2023-12-05T13:19:28.689Z,97984.55
2023-12-05T13:24:35.873Z,97984.63
2023-12-05T13:29:43.052Z,97985.59
2023-12-05T13:34:50.285Z,97989.11
2023-12-05T13:39:57.573Z,97979.84
2023-12-05T13:45:04.802Z,97984.30
2023-12-05T13:50:12.440Z,97979.86
2023-12-05T13:55:19.637Z,97981.37
2023-12-05T14:00:27.341Z,97982.72
2023-12-05T14:05:34.664Z,97988.32
2023-12-05T14:10:41.977Z,97998.33
2023-12-05T14:15:49.706Z,98005.55
2023-12-05T14:21:00.287Z,98006.61
2023-12-05T14:26:08.978Z,98007.00
2023-12-05T14:31:16.210Z,98007.41
2023-12-05T14:36:23.350Z,98018.75
2023-12-05T14:41:31.728Z,98024.36
2023-12-05T14:46:39.401Z,98028.12
2023-12-05T14:51:46.720Z,98041.14
2023-12-05T14:56:54.452Z,98036.93
2023-12-05T15:02:01.699Z,98033.36
2023-12-05T15:07:09.016Z,98033.97
2023-12-05T15:12:16.319Z,98031.46
2023-12-05T15:17:23.382Z,98029.33
2023-12-05T15:22:30.653Z,98023.48
2023-12-05T15:27:38.192Z,98014.89
2023-12-05T15:32:52.537Z,98016.58
2023-12-05T15:38:00.349Z,98020.45
2023-12-05T15:43:08.001Z,98023.20
2023-12-05T15:48:42.770Z,98025.67
2023-12-05T15:53:43.051Z,98029.20
2023-12-05T15:58:49.975Z,98031.29
2023-12-05T16:03:57.564Z,98027.00
2023-12-05T16:09:06.283Z,98023.46
2023-12-05T16:14:13.409Z,98025.37
2023-12-05T16:19:21.621Z,98022.53
2023-12-05T16:24:28.906Z,98027.64
2023-12-05T16:29:36.176Z,98024.55
2023-12-05T16:34:43.742Z,98016.45
2023-12-05T16:39:51.046Z,98009.67
2023-12-05T16:44:58.404Z,98011.16
2023-12-05T16:50:06.726Z,98012.25
2023-12-05T16:55:14.014Z,98012.05
2023-12-05T17:00:22.498Z,98017.25
2023-12-05T17:05:29.497Z,98015.51
2023-12-05T17:10:36.525Z,98015.98
2023-12-05T17:15:43.605Z,98023.11
2023-12-05T17:20:50.722Z,98025.95
2023-12-05T17:25:57.690Z,98025.65
2023-12-05T17:31:06.403Z,98026.36
2023-12-05T17:36:13.505Z,98034.48
2023-12-05T17:41:20.338Z,98035.76
2023-12-05T17:46:27.416Z,98039.42
2023-12-05T17:51:34.709Z,98036.89
2023-12-05T17:56:42.328Z,98042.27
2023-12-05T18:01:49.390Z,98040.26
2023-12-05T18:07:49.767Z,98038.70
2023-12-05T18:12:24.393Z,98051.56
2023-12-05T18:17:32.098Z,98054.23
2023-12-05T18:22:39.349Z,98060.77
2023-12-05T18:27:46.520Z,98060.80
2023-12-05T18:32:53.630Z,98061.19
2023-12-05T18:38:00.612Z,98063.19
2023-12-05T18:43:09.106Z,98050.25
2023-12-05T18:48:16.121Z,98046.60
2023-12-05T18:53:24.833Z,98041.26
2023-12-05T18:58:31.870Z,98045.88
2023-12-05T19:03:38.859Z,98053.20
2023-12-05T19:08:46.065Z,98046.28
2023-12-05T19:13:53.013Z,98054.91
2023-12-05T19:19:00.079Z,98053.27
2023-12-05T19:24:07.493Z,98054.85
2023-12-05T19:29:15.043Z,98061.09
2023-12-05T19:34:26.349Z,98061.37
2023-12-05T19:39:37.343Z,98059.45
2023-12-05T19:44:44.678Z,98056.52
2023-12-05T19:49:51.954Z,98047.13
2023-12-05T19:54:59.375Z,98044.95
2023-12-05T20:00:07.266Z,98055.63
2023-12-05T20:05:14.205Z,98055.53
2023-12-05T20:10:22.460Z,98058.11
2023-12-05T20:15:31.209Z,98064.42
2023-12-05T20:20:38.205Z,98070.28
2023-12-05T20:25:45.818Z,98070.08
2023-12-05T20:30:53.268Z,98068.05
2023-12-05T20:36:00.393Z,98062.73
2023-12-05T20:41:07.751Z,98056.26
2023-12-05T20:46:15.174Z,98062.34
2023-12-05T20:51:22.322Z,98062.27
2023-12-05T20:56:29.566Z,98067.70
2023-12-05T21:01:36.723Z,98066.11
2023-12-05T21:06:50.171Z,98063.14
2023-12-05T21:11:58.317Z,98063.38
2023-12-05T21:17:05.747Z,98059.28
2023-12-05T21:22:12.654Z,98058.36
2023-12-05T21:27:19.950Z,98064.61
2023-12-05T21:32:27.223Z,98059.90
2023-12-05T21:37:34.182Z,98058.78
2023-12-05T21:42:41.226Z,98068.48
2023-12-05T21:47:47.901Z,98077.09
2023-12-05T21:52:55.014Z,98074.79
2023-12-05T21:58:02.329Z,98071.66
2023-12-05T22:03:09.656Z,98075.24
2023-12-05T22:08:16.767Z,98078.46
2023-12-05T22:13:23.720Z,98082.56
2023-12-05T22:18:32.825Z,98081.88
2023-12-05T22:23:41.877Z,98088.13
2023-12-05T22:28:48.976Z,98098.14
2023-12-05T22:33:56.634Z,98099.63
2023-12-05T22:39:05.818Z,98102.83
2023-12-05T22:44:13.110Z,98109.23
2023-12-05T22:49:20.072Z,98107.19
2023-12-05T22:54:27.250Z,98100.13
2023-12-05T22:59:34.831Z,98104.08
2023-12-05T23:04:41.920Z,98107.77
2023-12-05T23:09:48.906Z,98115.73
2023-12-05T23:14:56.181Z,98121.09
2023-12-05T23:20:03.147Z,98119.96
2023-12-05T23:25:10.704Z,98120.35
2023-12-05T23:30:18.476Z,98112.54
2023-12-05T23:35:25.563Z,98111.39
2023-12-05T23:40:32.966Z,98108.23
2023-12-05T23:45:40.202Z,98104.79
2023-12-05T23:50:47.560Z,98101.21
2023-12-05T23:55:54.788Z,98094.16
